Flight Track Log - Related Links

Times and Time Zones

All times are in EDT time to prevent confusion due to time zone crossing. See the SWA896 flight status page for this flight to view local times or setup timezone preferences in your user account.

Time Position Orientation Groundspeed Altitude Reporting Facility
EDT Latitude Longitude Course Direction KTS MPH feet Rate Location/Type
Sat 11:56:53 AM 27.9667 -82.5500 180° South 185 213 700  Level Tampa TRACON
Sat 11:56:59 AM 27.9500 -82.5500 180° South 187 215 1,000 2,091 Climbing Tampa TRACON
Sat 11:57:59 AM 27.9000 -82.5667 196° South 210 242 3,000 2,850 Climbing Tampa TRACON
Sat 11:58:59 AM 27.8667 -82.6167 233° Southwest 232 267 6,700 2,927 Climbing Tampa TRACON
Sat 12:00:43 PM 27.9786 -82.6317 353° North 265 305 11,000 2,524 Climbing Jacksonville Center
Sat 12:01:43 PM 28.0725 -82.6197 North 302 348 13,600 2,800 Climbing Jacksonville Center
Sat 12:02:43 PM 28.1747 -82.6053 North 340 391 16,600 2,800 Climbing Jacksonville Center
Sat 12:03:43 PM 28.2831 -82.5933 North 371 427 19,200 2,550 Climbing Jacksonville Center
Sat 12:04:43 PM 28.3978 -82.5858 North 393 452 21,700 2,450 Climbing Jacksonville Center
Sat 12:05:43 PM 28.5169 -82.5856 360° North 406 467 24,100 2,350 Climbing Jacksonville Center
Sat 12:06:43 PM 28.6336 -82.5897 358° North 411 473 26,400 2,100 Climbing Jacksonville Center
Sat 12:07:43 PM 28.7631 -82.6014 355° North 418 481 28,300 1,650 Climbing Jacksonville Center
Sat 12:08:43 PM 28.8864 -82.6200 352° North 431 496 29,700 1,350 Climbing Jacksonville Center
Sat 12:09:43 PM 29.0158 -82.6361 354° North 446 513 31,000 1,100 Climbing Jacksonville Center
Sat 12:10:43 PM 29.1453 -82.6547 353° North 457 526 31,900 500 Climbing Jacksonville Center
Sat 12:11:43 PM 29.2683 -82.6331 North 451 519 32,000 50 Climbing Jacksonville Center
Sat 12:12:43 PM 29.3894 -82.5900 17° North 451 519 32,000  Level Jacksonville Center
Sat 12:13:43 PM 29.5019 -82.5514 17° North 456 525 32,000 500 Level Jacksonville Center
Sat 12:14:43 PM 29.6292 -82.5128 15° North 456 525 33,000 1,450 Climbing Jacksonville Center
Sat 12:15:43 PM 29.7522 -82.4692 17° North 456 525 34,900 1,700 Climbing Jacksonville Center
Sat 12:16:43 PM 29.8772 -82.4303 15° North 456 525 36,400 1,350 Climbing Jacksonville Center
Sat 12:17:43 PM 30.0003 -82.3889 16° North 456 525 37,600 1,300 Climbing Jacksonville Center
Sat 12:18:43 PM 30.1214 -82.3522 15° North 451 519 39,000 700 Climbing Jacksonville Center
Sat 12:19:43 PM 30.2400 -82.3083 18° North 451 519 39,000  Level Jacksonville Center
Sat 12:20:43 PM 30.3611 -82.2667 17° North 451 519 39,000  Level Jacksonville Center
Sat 12:21:43 PM 30.4797 -82.2272 16° North 446 513 39,000  Level Jacksonville Center
Sat 12:22:43 PM 30.5986 -82.1950 13° North 441 507 39,000  Level Jacksonville Center
Sat 12:23:43 PM 30.7175 -82.1531 17° North 436 502 39,000  Level Jacksonville Center
Sat 12:24:43 PM 30.8342 -82.1136 16° North 431 496 39,000  Level Jacksonville Center
Sat 12:25:43 PM 30.9550 -82.0714 17° North 436 502 39,000  Level Jacksonville Center
Sat 12:26:43 PM 31.0736 -82.0339 15° North 436 502 39,000  Level Jacksonville Center
Sat 12:27:43 PM 31.1944 -81.9917 17° North 436 502 39,000  Level Jacksonville Center
Sat 12:28:43 PM 31.3153 -81.9514 16° North 436 502 39,000  Level Jacksonville Center
Sat 12:29:43 PM 31.4300 -81.9089 18° North 427 491 39,000  Level Jacksonville Center
Sat 12:30:43 PM 31.5631 -81.8661 15° North 437 503 39,000  Level Jacksonville Center
Sat 12:31:43 PM 31.6797 -81.8258 16° North 443 510 39,000  Level Jacksonville Center
Sat 12:32:43 PM 31.8025 -81.7853 16° North 441 507 39,000  Level Jacksonville Center
Sat 12:33:43 PM 31.9089 -81.7497 16° North 446 513 39,000  Level Jacksonville Center
Sat 12:34:43 PM 32.0336 -81.7089 16° North 455 524 39,000  Level Jacksonville Center
Sat 12:35:43 PM 32.1606 -81.6581 19° North 441 507 39,000  Level Jacksonville Center
Sat 12:36:43 PM 32.2792 -81.6147 17° North 434 499 39,000  Level Jacksonville Center
Sat 12:37:43 PM 32.3786 -81.5544 27° Northeast 440 506 39,000  Level Jacksonville Center
Sat 12:38:43 PM 32.4967 -81.4739 30° Northeast 450 518 39,000  Level Jacksonville Center
Sat 12:39:43 PM 32.6044 -81.4006 30° Northeast 445 512 39,000  Level Jacksonville Center
Sat 12:40:43 PM 32.7039 -81.3322 30° Northeast 445 512 39,000  Level Jacksonville Center
Sat 12:41:43 PM 32.8136 -81.2561 30° Northeast 445 512 39,000  Level Jacksonville Center
Sat 12:42:43 PM 32.9231 -81.1800 30° Northeast 445 512 39,000  Level Jacksonville Center
Sat 12:43:43 PM 33.0328 -81.1061 29° Northeast 440 506 39,000  Level Jacksonville Center
Sat 12:44:43 PM 33.1403 -81.0344 29° Northeast 440 506 39,000  Level Jacksonville Center
Sat 12:45:43 PM 33.2497 -80.9578 30° Northeast 440 506 39,000  Level Jacksonville Center
Sat 12:46:43 PM 33.3572 -80.8833 30° Northeast 440 506 39,000  Level Jacksonville Center
Sat 12:47:43 PM 33.4769 -80.8033 29° Northeast 440 506 39,000  Level Jacksonville Center
Sat 12:48:43 PM 33.5861 -80.7236 31° Northeast 440 506 39,000  Level Jacksonville Center
Sat 12:49:43 PM 33.6975 -80.6483 29° Northeast 440 506 39,000  Level Jacksonville Center
Sat 12:50:43 PM 33.8067 -80.5731 30° Northeast 445 512 39,000  Level Jacksonville Center
Sat 12:52:41 PM 34.0136 -80.4244 31° Northeast 453 521 39,000  Level Washington Center
Sat 12:53:42 PM 34.1186 -80.3528 29° Northeast 458 527 39,000  Level Washington Center
Sat 12:54:40 PM 34.2303 -80.2739 30° Northeast 453 521 39,000  Level Washington Center
Sat 12:55:41 PM 34.3378 -80.1919 32° Northeast 453 521 39,000  Level Washington Center
Sat 12:56:42 PM 34.4472 -80.1175 29° Northeast 453 521 39,000  Level Washington Center
Sat 12:57:42 PM 34.5544 -80.0403 31° Northeast 453 521 39,000  Level Washington Center
Sat 12:58:40 PM 34.6572 -79.9675 30° Northeast 458 527 39,000  Level Washington Center
Sat 12:59:41 PM 34.7642 -79.8897 31° Northeast 458 527 39,000  Level Washington Center
Sat 01:00:41 PM 34.8692 -79.8144 30° Northeast 458 527 39,000  Level Washington Center
Sat 01:01:42 PM 34.9786 -79.7339 31° Northeast 453 521 39,000  Level Washington Center
Sat 01:02:42 PM 35.0811 -79.6606 30° Northeast 448 516 39,000  Level Washington Center
Sat 01:03:40 PM 35.1861 -79.5769 33° Northeast 448 516 39,000  Level Washington Center
Sat 01:04:40 PM 35.2794 -79.4722 42° Northeast 443 510 39,000  Level Washington Center
Sat 01:05:41 PM 35.3833 -79.3522 43° Northeast 454 522 39,000  Level Washington Center
Sat 01:06:42 PM 35.4742 -79.2494 43° Northeast 454 522 39,000  Level Washington Center
Sat 01:07:42 PM 35.5672 -79.1439 43° Northeast 454 522 39,000  Level Washington Center
Sat 01:08:42 PM 35.6578 -79.0381 44° Northeast 449 517 39,000  Level Washington Center
Sat 01:09:40 PM 35.7506 -78.9344 42° Northeast 449 517 39,000  Level Washington Center
Sat 01:10:41 PM 35.8433 -78.8231 44° Northeast 449 517 39,000  Level Washington Center
Sat 01:11:41 PM 35.9397 -78.7294 38° Northeast 449 517 39,000 -347 Level Washington Center
Sat 01:12:42 PM 36.0422 -78.6386 36° Northeast 449 517 38,300 -1,613 Descending Washington Center
Sat 01:13:40 PM 36.1444 -78.5500 35° Northeast 449 517 35,800 -2,695 Descending Washington Center
Sat 01:14:40 PM 36.2447 -78.4611 36° Northeast 449 517 33,000 -2,479 Descending Washington Center
Sat 01:15:41 PM 36.3428 -78.3744 35° Northeast 439 505 30,800 -1,967 Descending Washington Center
Sat 01:16:42 PM 36.4344 -78.2925 36° Northeast 425 489 29,000 -893 Descending Washington Center
Sat 01:17:42 PM 36.5261 -78.2103 36° Northeast 418 481 29,000 -250 Level Washington Center
Sat 01:18:42 PM 36.6089 -78.1328 37° Northeast 418 481 28,500 -712 Descending Washington Center
Sat 01:19:40 PM 36.7047 -78.0453 36° Northeast 413 475 27,600 -1,017 Descending Washington Center
Sat 01:20:40 PM 36.8003 -77.9603 35° Northeast 413 475 26,500 -1,091 Descending Washington Center
Sat 01:21:41 PM 36.8917 -77.8772 36° Northeast 413 475 25,400 -1,041 Descending Washington Center
Sat 01:22:41 PM 36.9808 -77.7992 35° Northeast 408 470 24,400 -992 Descending Washington Center
Sat 01:23:42 PM 37.0839 -77.7475 22° Northeast 394 453 23,400 -706 Descending Washington Center
Sat 01:24:40 PM 37.1847 -77.7033 19° North 384 442 23,000 -203 Descending Washington Center
Sat 01:25:40 PM 37.2836 -77.6592 20° North 384 442 23,000  Level Washington Center
Sat 01:26:40 PM 37.3844 -77.6122 20° North 379 436 23,000  Level Washington Center
Sat 01:27:42 PM 37.4856 -77.5653 20° North 379 436 23,000  Level Washington Center
Sat 01:28:42 PM 37.5842 -77.5181 21° North 379 436 23,000  Level Washington Center
Sat 01:29:40 PM 37.6831 -77.4706 21° North 379 436 23,000  Level Washington Center
Sat 01:30:40 PM 37.7839 -77.4233 20° North 374 430 23,000  Level Washington Center
Sat 01:31:41 PM 37.8806 -77.3781 20° North 374 430 23,000  Level Washington Center
Sat 01:32:42 PM 37.9772 -77.3306 21° North 374 430 23,000 -744 Level Washington Center
Sat 01:33:42 PM 38.0822 -77.2828 20° North 368 423 21,500 -1,765 Descending Washington Center
Sat 01:34:41 PM 38.1786 -77.2375 20° North 368 423 19,500 -1,966 Descending Washington Center
Sat 01:35:41 PM 38.2689 -77.1944 21° North 363 418 17,600 -2,083 Descending Washington Center
Sat 01:36:42 PM 38.3611 -77.1486 21° North 358 412 15,300 -1,714 Descending Washington Center
Sat 01:37:40 PM 38.4353 -77.0733 38° Northeast 343 395 14,200 -1,563 Descending Washington Center
Sat 01:38:41 PM 38.5050 -76.9897 43° Northeast 331 381 12,200 -1,279 Descending Washington Center
Sat 01:39:42 PM 38.5683 -76.9114 44° Northeast 321 369 11,600 -1,008 Descending Washington Center
Sat 01:40:40 PM 38.6339 -76.8356 42° Northeast 316 364 10,200 -1,261 Descending Washington Center
Sat 01:41:41 PM 38.6931 -76.7619 44° Northeast 301 346 9,100 -1,112 Descending Washington Center
Sat 01:44:05 PM 38.7833 -76.5500 61° Northeast 280 322 6,400 -1,206 Descending Potomac TRACON
Sat 01:45:00 PM 38.8500 -76.5333 11° North 271 312 5,100 -1,252 Descending Potomac TRACON
Sat 01:46:00 PM 38.9167 -76.5500 349° North 252 290 4,000 -893 Descending Potomac TRACON
Sat 01:47:01 PM 38.9833 -76.5500 360° North 224 258 3,300 -694 Descending Potomac TRACON
Sat 01:48:01 PM 39.0500 -76.5833 339° North 210 242 2,600 -750 Descending Potomac TRACON
Sat 01:49:01 PM 39.0833 -76.6000 339° North 183 211 1,800 -850 Descending Potomac TRACON
Sat 01:50:01 PM 39.1333 -76.6333 333° Northwest 139 160 900 -900 Descending Potomac TRACON
Sat 01:52:00 PM 39.1667 -76.6667 339° North  Level FlightAware Approximate
Sat 01:59:00 PM 39.1754 -76.6683 339° North  Level Estimated
Sat 02:00:00 PM 39.1754 -76.6683 339° North  Level Estimated
Sat 02:01:00 PM 39.1754 -76.6683 339° North  Level Estimated
Sat 02:02:00 PM 39.1754 -76.6683 339° North  Level Estimated
Sat 02:03:00 PM 39.1754 -76.6683 339° North  Level Estimated
Sat 02:04:00 PM 39.1754 -76.6683 339° North  Level Estimated

Login

Don't have an account? Register now (free) for customized features, flight alerts, and more!